Главная страница
METAR-TAF:

METAR-TAF

Аэропорты :

Киль, Германия

широта: 54-23N, долгота: 010-10E, высота над уровнем моря: 31 м

Текущие метеонаблюдения

Эта сводка был подготовлена 3 часа и 16 минут назад, в 17:20 UTC
Температура 11°C
Влажность 58%
Давление 1032 hPa
Видимость 10 км и более
Нет облачности ниже 1500 м, и нет кучево-дождевой облачности

METAR: EDHK 181720Z /////KT CAVOK 11/03 Q1032

Время: 22:36 (20:36 UTC)

Прогноз

Эта сводка был подготовлена 6 часа и 36 минут назад, в 14:00 UTC
Прогноз действительный с 18-го 15 UTC до 18-го 18 UTC
Ветер 13 Узел от восточно-северо-восточный с порывами до 23 Узел
Видимость 10 км и более
Нет облачности ниже 1500 м, и нет кучево-дождевой облачности

TAF: EDHK 181400Z 1815/1818 07013G23KT CAVOK

Метеонаблюдения и прогнозы для более 4000 аэропортов (сводки METAR и TAF).

Имеющиеся станции представлены на карте желтыми и красными точками.

Чтобы увидеть название станции, наведите на нее мышь.

Затем щелкните, чтобы увидеть метеонаблюдения и метеопрогнозы.

Управление картой: чтобы увеличить масштаб, щелкните зеленые кнопки с черным крестиком; чтобы уменьшить масштаб, щелкните зеленую кнопку с тире; для просмотра соседних карт щелкайте зеленые стрелки.


METAR-TAF: